Terminal Aerodrome Forecast
Issued by NWS St Louis, MO

Home | Current Version | Previous Version | Text Only | Print | Product List | Glossary On
Versions: 1 2 3 4 5 6 7 8 9 10 11 12 13 14 15 16 17 18 19 20
000
FTUS43 KLSX 201725
TAFCOU
TAF
KCOU 201725Z 2018/2118 17011KT P6SM BKN250
     FM210600 16010KT P6SM BKN250 WS015/19040KT
     FM211300 17010G16KT P6SM BKN090
     FM211700 18012G22KT P6SM SCT080=

USA.gov is the U.S. government's official web portal to all federal, state and local government web resources and services.